createdAt,value
2023-03-22T00:01:14.286Z,13.20
2023-03-22T00:03:41.699Z,16.25
2023-03-22T00:06:09.468Z,13.93
2023-03-22T00:08:36.706Z,14.00
2023-03-22T00:11:04.305Z,14.07
2023-03-22T00:13:32.246Z,12.88
2023-03-22T00:16:00.017Z,15.18
2023-03-22T00:18:26.966Z,15.15
2023-03-22T00:20:56.029Z,14.73
2023-03-22T00:23:24.391Z,16.63
2023-03-22T00:25:51.916Z,14.00
2023-03-22T00:28:19.333Z,16.05
2023-03-22T00:30:58.151Z,12.57
2023-03-22T00:33:28.739Z,13.38
2023-03-22T00:36:00.261Z,16.98
2023-03-22T00:38:42.355Z,18.27
2023-03-22T00:41:15.968Z,14.65
2023-03-22T00:43:45.682Z,18.00
2023-03-22T00:46:14.150Z,13.50
2023-03-22T00:48:41.635Z,17.33
2023-03-22T00:51:09.689Z,12.63
2023-03-22T00:53:42.383Z,15.18
2023-03-22T00:56:14.327Z,15.07
2023-03-22T00:59:05.506Z,15.38
2023-03-22T01:01:32.549Z,16.13
2023-03-22T01:03:59.925Z,12.80
2023-03-22T01:06:26.977Z,15.02
2023-03-22T01:08:55.241Z,15.77
2023-03-22T01:11:22.287Z,13.68
2023-03-22T01:13:49.729Z,14.93
2023-03-22T01:16:17.428Z,16.52
2023-03-22T01:18:44.779Z,15.55
2023-03-22T01:21:11.771Z,20.45
2023-03-22T01:23:38.903Z,20.63
2023-03-22T01:26:06.177Z,12.93
2023-03-22T01:28:33.219Z,15.85
2023-03-22T01:31:03.707Z,13.75
2023-03-22T01:33:31.339Z,16.15
2023-03-22T01:35:58.941Z,18.30
2023-03-22T01:38:26.673Z,13.75
2023-03-22T01:40:57.425Z,12.40
2023-03-22T01:43:25.339Z,13.07
2023-03-22T01:45:54.061Z,12.15
2023-03-22T01:48:28.285Z,16.75
2023-03-22T01:51:03.689Z,16.75
2023-03-22T01:53:45.601Z,12.35
2023-03-22T01:56:13.536Z,15.88
2023-03-22T01:58:42.209Z,13.82
2023-03-22T02:01:11.605Z,16.33
2023-03-22T02:03:53.356Z,16.48
2023-03-22T02:06:21.623Z,13.65
2023-03-22T02:08:57.988Z,15.13
2023-03-22T02:11:31.025Z,14.65
2023-03-22T02:14:12.657Z,14.03
2023-03-22T02:17:14.894Z,14.23
2023-03-22T02:20:11.111Z,13.20
2023-03-22T02:23:15.923Z,12.45
2023-03-22T02:26:08.235Z,18.33
2023-03-22T02:28:35.166Z,15.30
2023-03-22T02:31:37.890Z,10.35
2023-03-22T02:34:34.557Z,16.40
2023-03-22T02:37:10.565Z,21.77
2023-03-22T02:39:58.570Z,11.45
2023-03-22T02:42:44.320Z,10.90
2023-03-22T02:48:16.998Z,21.48
2023-03-22T02:51:03.862Z,18.60
2023-03-22T02:53:46.341Z,17.23
2023-03-22T02:56:14.603Z,11.82
2023-03-22T02:58:45.866Z,11.57
2023-03-22T03:01:42.941Z,14.82
2023-03-22T03:04:16.217Z,15.25
2023-03-22T03:06:48.826Z,17.00
2023-03-22T03:09:18.663Z,11.40
2023-03-22T03:11:52.607Z,12.40
2023-03-22T03:14:26.710Z,15.43
2023-03-22T03:17:32.359Z,13.65
2023-03-22T03:20:02.274Z,13.18
2023-03-22T03:22:35.358Z,16.67
2023-03-22T03:25:20.397Z,15.57
2023-03-22T03:28:00.924Z,14.03
2023-03-22T03:30:56.246Z,13.82
2023-03-22T03:33:27.966Z,12.25
2023-03-22T03:36:01.032Z,9.38
2023-03-22T03:38:31.740Z,12.48
2023-03-22T03:41:21.165Z,11.45
2023-03-22T03:43:51.409Z,12.98
2023-03-22T03:46:18.486Z,14.75
2023-03-22T03:48:48.306Z,15.02
2023-03-22T03:51:15.799Z,14.35
2023-03-22T03:53:43.028Z,11.70
2023-03-22T03:56:10.884Z,14.27
2023-03-22T03:58:42.794Z,10.70
2023-03-22T04:01:10.308Z,11.18
2023-03-22T04:03:55.453Z,12.18
2023-03-22T04:06:44.367Z,7.80
2023-03-22T04:09:17.117Z,12.98
2023-03-22T04:11:47.856Z,12.57
2023-03-22T04:14:15.832Z,10.88
2023-03-22T04:16:43.175Z,9.43
2023-03-22T04:19:14.380Z,12.25
2023-03-22T04:21:41.361Z,15.38
2023-03-22T04:24:09.493Z,14.70
2023-03-22T04:26:40.411Z,15.60
2023-03-22T04:29:16.926Z,8.07
2023-03-22T04:31:48.606Z,10.63
2023-03-22T04:34:22.656Z,15.20
2023-03-22T04:36:54.349Z,12.80
2023-03-22T04:39:30.640Z,11.95
2023-03-22T04:42:17.792Z,13.20
2023-03-22T04:44:46.276Z,13.13
2023-03-22T04:47:13.116Z,16.83
2023-03-22T04:49:40.313Z,13.55
2023-03-22T04:52:07.256Z,14.40
2023-03-22T04:54:38.287Z,14.43
2023-03-22T04:57:06.376Z,9.27
2023-03-22T04:59:38.947Z,9.02
2023-03-22T05:02:06.068Z,17.17
2023-03-22T05:04:40.233Z,10.38
2023-03-22T05:07:15.584Z,10.82
2023-03-22T05:09:53.485Z,16.63
2023-03-22T05:12:20.533Z,11.23
2023-03-22T05:14:53.497Z,14.43
2023-03-22T05:17:24.692Z,11.63
2023-03-22T05:19:55.923Z,17.20
2023-03-22T05:22:22.942Z,14.18
2023-03-22T05:24:51.742Z,11.65
2023-03-22T05:27:31.286Z,8.40
2023-03-22T05:30:24.459Z,10.27
2023-03-22T05:33:03.841Z,14.43
2023-03-22T05:35:37.280Z,17.08
2023-03-22T05:38:05.964Z,16.63
2023-03-22T05:40:36.220Z,15.93
2023-03-22T05:43:03.198Z,15.15
2023-03-22T05:45:32.512Z,17.58
2023-03-22T05:48:10.329Z,13.32
2023-03-22T05:50:37.782Z,16.63
2023-03-22T05:53:05.394Z,17.98
2023-03-22T05:55:41.556Z,11.73
2023-03-22T05:58:09.150Z,15.27
2023-03-22T06:00:39.408Z,15.55
2023-03-22T06:03:21.708Z,15.52
2023-03-22T06:05:59.659Z,7.57
2023-03-22T06:08:38.615Z,14.85
2023-03-22T06:11:07.446Z,17.10
2023-03-22T06:13:35.368Z,14.45
2023-03-22T06:16:04.062Z,18.95
2023-03-22T06:18:31.582Z,14.25
2023-03-22T06:21:06.058Z,12.65
2023-03-22T06:23:33.036Z,16.85
2023-03-22T06:25:59.911Z,15.10
2023-03-22T06:28:29.898Z,10.75
2023-03-22T06:30:58.187Z,15.93
2023-03-22T06:33:29.855Z,15.50
2023-03-22T06:36:03.528Z,13.63
2023-03-22T06:38:41.209Z,12.93
2023-03-22T06:41:08.342Z,13.90
2023-03-22T06:43:35.520Z,13.23
2023-03-22T06:46:14.656Z,14.85
2023-03-22T06:48:48.035Z,16.42
2023-03-22T06:51:16.631Z,20.48
2023-03-22T06:53:45.361Z,14.15
2023-03-22T06:56:12.517Z,15.40
2023-03-22T06:58:47.135Z,12.40
2023-03-22T07:01:14.199Z,8.60
2023-03-22T07:03:41.088Z,15.20
2023-03-22T07:06:13.474Z,17.15
2023-03-22T07:08:43.388Z,16.48
2023-03-22T07:11:13.379Z,12.65
2023-03-22T07:13:42.595Z,13.98
2023-03-22T07:16:14.708Z,13.27
2023-03-22T07:18:50.385Z,12.85
2023-03-22T07:21:17.374Z,9.40
2023-03-22T07:23:49.212Z,16.63
2023-03-22T07:26:18.598Z,20.95
2023-03-22T07:28:48.640Z,13.43
2023-03-22T07:31:16.236Z,14.38
2023-03-22T07:34:07.236Z,13.18
2023-03-22T07:36:46.154Z,9.70
2023-03-22T07:39:13.646Z,23.40
2023-03-22T07:41:44.576Z,14.20
2023-03-22T07:44:23.857Z,16.25
2023-03-22T07:47:39.463Z,14.63
2023-03-22T07:50:38.431Z,11.45
2023-03-22T07:53:06.389Z,9.75
2023-03-22T07:55:33.224Z,12.65
2023-03-22T07:58:00.176Z,11.82
2023-03-22T08:00:27.268Z,13.98
2023-03-22T08:03:17.107Z,9.48
2023-03-22T08:06:03.209Z,17.73
2023-03-22T08:08:30.346Z,16.65
2023-03-22T08:10:57.797Z,13.30
2023-03-22T08:13:24.973Z,12.80
2023-03-22T08:15:52.189Z,13.43
2023-03-22T08:18:21.119Z,14.23
2023-03-22T08:20:54.278Z,13.30
2023-03-22T08:23:28.833Z,15.18
2023-03-22T08:26:20.582Z,19.67
2023-03-22T08:28:48.646Z,14.23
2023-03-22T08:31:17.350Z,17.42
2023-03-22T08:33:47.247Z,10.60
2023-03-22T08:36:17.679Z,15.98
2023-03-22T08:38:55.521Z,16.52
2023-03-22T08:41:32.614Z,15.77
2023-03-22T08:44:01.716Z,12.68
2023-03-22T08:46:28.807Z,14.38
2023-03-22T08:48:58.834Z,10.65
2023-03-22T08:51:31.879Z,15.77
2023-03-22T08:54:08.923Z,10.80
2023-03-22T08:56:59.262Z,9.48
2023-03-22T08:59:42.953Z,12.75
2023-03-22T09:02:30.314Z,14.18
2023-03-22T09:04:58.728Z,11.88
2023-03-22T09:07:27.345Z,9.30
2023-03-22T09:10:04.114Z,13.63
2023-03-22T09:12:32.157Z,14.27
2023-03-22T09:14:59.373Z,12.50
2023-03-22T09:17:29.095Z,14.45
2023-03-22T09:20:11.123Z,12.20
2023-03-22T09:22:41.318Z,10.87
2023-03-22T09:25:12.515Z,14.63
2023-03-22T09:27:42.093Z,12.32
2023-03-22T09:30:09.560Z,9.70
2023-03-22T09:32:36.597Z,19.63
2023-03-22T09:35:05.245Z,11.35
2023-03-22T09:37:39.905Z,11.75
2023-03-22T09:40:08.193Z,11.35
2023-03-22T09:42:42.552Z,12.13
2023-03-22T09:45:18.607Z,14.80
2023-03-22T09:47:52.572Z,9.18
2023-03-22T09:50:26.137Z,10.55
2023-03-22T09:52:53.825Z,9.90
2023-03-22T09:55:41.293Z,11.77
2023-03-22T09:58:21.309Z,13.48
2023-03-22T10:00:55.839Z,10.02
2023-03-22T10:03:25.499Z,13.47
2023-03-22T10:05:55.591Z,12.95
2023-03-22T10:08:28.475Z,7.38
2023-03-22T10:10:56.746Z,10.85
2023-03-22T10:13:45.720Z,7.40
2023-03-22T10:16:24.301Z,9.32
2023-03-22T10:18:54.519Z,7.68
2023-03-22T10:21:21.871Z,11.23
2023-03-22T10:23:57.933Z,10.07
2023-03-22T10:26:33.697Z,10.25
2023-03-22T10:29:12.559Z,11.90
2023-03-22T10:31:44.731Z,8.18
2023-03-22T10:34:21.148Z,7.80
2023-03-22T10:36:51.625Z,10.13
2023-03-22T10:39:24.595Z,12.23
2023-03-22T10:41:56.393Z,11.00
2023-03-22T10:44:28.802Z,10.82
2023-03-22T10:46:58.060Z,10.43
2023-03-22T10:49:37.985Z,10.90
2023-03-22T10:52:22.712Z,8.93
2023-03-22T10:54:49.657Z,6.60
2023-03-22T10:57:17.421Z,7.47
2023-03-22T10:59:49.902Z,5.72
2023-03-22T11:02:46.123Z,8.30
2023-03-22T11:07:46.479Z,7.55
2023-03-22T11:10:29.759Z,11.45
2023-03-22T11:13:19.370Z,5.15
2023-03-22T11:15:58.261Z,8.73
2023-03-22T11:18:29.440Z,7.18
2023-03-22T11:20:59.600Z,8.50
2023-03-22T11:23:29.254Z,8.95
2023-03-22T11:25:59.224Z,8.95
2023-03-22T11:28:36.690Z,6.60
2023-03-22T11:31:08.467Z,8.98
2023-03-22T11:33:36.811Z,7.43
2023-03-22T11:36:17.680Z,8.30
2023-03-22T11:38:45.673Z,7.55
2023-03-22T11:41:25.881Z,8.50
2023-03-22T11:43:56.145Z,7.55
2023-03-22T11:46:23.647Z,7.13
2023-03-22T11:48:53.300Z,7.55
2023-03-22T11:51:29.756Z,10.02
2023-03-22T11:54:09.058Z,7.00
2023-03-22T11:56:41.659Z,9.80
2023-03-22T11:59:16.931Z,7.45
2023-03-22T12:01:51.273Z,9.10
2023-03-22T12:04:24.413Z,9.45
2023-03-22T12:06:55.395Z,7.50
2023-03-22T12:09:43.550Z,5.18
2023-03-22T12:12:26.007Z,5.88
2023-03-22T12:15:05.450Z,6.68
2023-03-22T12:17:48.815Z,7.18
2023-03-22T12:20:19.712Z,7.55
2023-03-22T12:22:52.737Z,7.65
2023-03-22T12:25:24.899Z,7.85
2023-03-22T12:28:03.561Z,7.43
2023-03-22T12:30:37.199Z,5.75
2023-03-22T12:33:09.730Z,4.53
2023-03-22T12:35:42.572Z,6.63
2023-03-22T12:38:39.400Z,7.75
2023-03-22T12:41:12.184Z,6.53
2023-03-22T12:43:44.965Z,6.53
2023-03-22T12:46:20.457Z,7.22
2023-03-22T12:51:15.914Z,6.22
2023-03-22T12:53:55.111Z,5.53
2023-03-22T12:56:26.475Z,7.75
2023-03-22T12:58:58.598Z,7.13
2023-03-22T13:01:58.190Z,8.18
2023-03-22T13:04:37.745Z,4.85
2023-03-22T13:07:34.252Z,5.88
2023-03-22T13:10:21.874Z,10.10
2023-03-22T13:13:12.745Z,7.47
2023-03-22T13:15:55.981Z,7.05
2023-03-22T13:18:30.124Z,9.27
2023-03-22T13:21:16.521Z,9.70
2023-03-22T13:23:55.732Z,9.68
2023-03-22T13:26:30.699Z,8.32
2023-03-22T13:28:59.910Z,7.55
2023-03-22T13:31:52.904Z,6.25
2023-03-22T13:34:37.599Z,8.02
2023-03-22T13:37:22.889Z,11.77
2023-03-22T13:39:51.998Z,9.23
2023-03-22T13:42:22.539Z,7.90
2023-03-22T13:44:59.161Z,5.32
2023-03-22T13:47:33.375Z,8.45
2023-03-22T13:50:27.617Z,6.78
2023-03-22T13:53:07.645Z,11.35
2023-03-22T13:55:46.779Z,11.63
2023-03-22T13:58:38.662Z,5.05
2023-03-22T14:01:14.494Z,7.72
2023-03-22T14:03:44.402Z,11.40
2023-03-22T14:06:19.485Z,10.30
2023-03-22T14:08:49.713Z,5.68
2023-03-22T14:11:32.744Z,6.78
2023-03-22T14:14:06.699Z,6.50
2023-03-22T14:17:01.032Z,6.43
2023-03-22T14:19:34.313Z,6.88
